createdAt,value
2018-04-16T00:01:25.200Z,36.30
2018-04-16T00:03:53.043Z,40.77
2018-04-16T00:06:20.634Z,35.00
2018-04-16T00:08:48.163Z,36.80
2018-04-16T00:11:15.706Z,33.53
2018-04-16T00:13:43.246Z,36.97
2018-04-16T00:16:10.780Z,34.67
2018-04-16T00:18:38.313Z,40.97
2018-04-16T00:21:05.843Z,36.97
2018-04-16T00:23:33.391Z,34.57
2018-04-16T00:26:00.912Z,35.70
2018-04-16T00:28:28.671Z,38.33
2018-04-16T00:30:56.216Z,34.57
2018-04-16T00:33:29.455Z,34.80
2018-04-16T00:36:02.706Z,35.67
2018-04-16T00:41:51.183Z,41.37
2018-04-16T00:44:24.340Z,32.80
2018-04-16T00:46:57.387Z,33.90
2018-04-16T00:49:30.495Z,38.13
2018-04-16T00:52:03.711Z,45.57
2018-04-16T00:54:36.800Z,49.73
2018-04-16T00:57:09.982Z,37.73
2018-04-16T00:59:43.149Z,38.37
2018-04-16T01:02:16.389Z,40.10
2018-04-16T01:04:49.607Z,48.80
2018-04-16T01:07:22.735Z,42.33
2018-04-16T01:09:55.912Z,47.40
2018-04-16T01:12:28.956Z,39.80
2018-04-16T01:15:02.028Z,39.47
2018-04-16T01:17:35.298Z,43.13
2018-04-16T01:20:08.384Z,44.00
2018-04-16T01:22:41.584Z,43.07
2018-04-16T01:25:14.700Z,45.73
2018-04-16T01:27:47.906Z,42.67
2018-04-16T01:30:25.976Z,49.97
2018-04-16T01:32:59.431Z,39.87
2018-04-16T01:35:32.553Z,38.77
2018-04-16T01:38:06.259Z,46.90
2018-04-16T01:40:39.524Z,43.00
2018-04-16T01:43:12.615Z,40.50
2018-04-16T01:45:45.622Z,39.10
2018-04-16T01:48:18.991Z,47.03
2018-04-16T01:50:52.246Z,41.50
2018-04-16T01:53:25.386Z,50.40
2018-04-16T01:55:58.635Z,42.10
2018-04-16T01:58:31.720Z,55.40
2018-04-16T02:01:04.944Z,48.10
2018-04-16T02:03:38.134Z,45.13
2018-04-16T02:06:11.205Z,50.97
2018-04-16T02:08:44.188Z,46.70
2018-04-16T02:11:17.407Z,49.83
2018-04-16T02:16:55.244Z,45.77
2018-04-16T02:19:28.400Z,46.23
2018-04-16T02:22:01.582Z,51.83
2018-04-16T02:24:34.639Z,46.90
2018-04-16T02:27:07.731Z,46.67
2018-04-16T02:29:40.914Z,51.70
2018-04-16T02:32:13.988Z,49.93
2018-04-16T02:34:47.084Z,46.70
2018-04-16T02:37:20.272Z,51.73
2018-04-16T02:39:53.435Z,45.63
2018-04-16T02:42:26.576Z,46.93
2018-04-16T02:44:59.586Z,46.27
2018-04-16T02:47:32.853Z,46.90
2018-04-16T02:50:05.899Z,52.40
2018-04-16T02:52:39.289Z,47.23
2018-04-16T02:58:15.557Z,47.87
2018-04-16T03:03:52.830Z,51.60
2018-04-16T03:06:25.907Z,50.80
2018-04-16T03:08:59.021Z,50.57
2018-04-16T03:11:32.230Z,62.33
2018-04-16T03:14:05.459Z,65.73
2018-04-16T03:16:38.581Z,61.27
2018-04-16T03:19:12.090Z,55.47
2018-04-16T03:21:45.241Z,54.57
2018-04-16T03:24:18.495Z,58.87
2018-04-16T03:26:51.977Z,54.77
2018-04-16T03:29:25.123Z,55.93
2018-04-16T03:31:58.376Z,53.10
2018-04-16T03:34:31.318Z,57.17
2018-04-16T03:37:04.263Z,57.53
2018-04-16T03:39:37.544Z,56.93
2018-04-16T03:42:10.654Z,57.00
2018-04-16T03:44:44.071Z,53.93
2018-04-16T03:47:17.303Z,57.23
2018-04-16T03:49:50.562Z,58.63
2018-04-16T03:52:23.613Z,54.20
2018-04-16T03:57:54.219Z,52.93
2018-04-16T04:00:22.022Z,59.77
2018-04-16T04:02:49.533Z,51.10
2018-04-16T04:05:17.070Z,48.77
2018-04-16T04:07:44.605Z,44.10
2018-04-16T04:10:12.160Z,46.40
2018-04-16T04:12:39.724Z,44.03
2018-04-16T04:15:07.280Z,46.43
2018-04-16T04:17:34.807Z,41.00
2018-04-16T04:20:02.332Z,45.00
2018-04-16T04:22:41.739Z,41.60
2018-04-16T04:25:21.133Z,42.50
2018-04-16T04:28:00.446Z,42.83
2018-04-16T04:30:45.746Z,50.43
2018-04-16T04:33:13.260Z,44.47
2018-04-16T04:35:40.843Z,45.83
2018-04-16T04:38:08.374Z,46.43
2018-04-16T04:40:35.928Z,48.90
2018-04-16T04:43:03.431Z,49.53
2018-04-16T04:45:30.967Z,49.30
2018-04-16T04:47:58.632Z,46.73
2018-04-16T04:50:26.137Z,48.83
2018-04-16T04:52:53.648Z,56.57
2018-04-16T04:55:21.184Z,45.00
2018-04-16T04:57:48.714Z,49.07
2018-04-16T05:00:16.277Z,44.03
2018-04-16T05:02:43.811Z,47.23
2018-04-16T05:05:11.348Z,42.80
2018-04-16T05:07:38.904Z,41.30
2018-04-16T05:10:06.438Z,43.17
2018-04-16T05:12:33.998Z,48.77
2018-04-16T05:15:01.888Z,44.07
2018-04-16T05:17:29.460Z,41.43
2018-04-16T05:19:57.000Z,53.40
2018-04-16T05:22:24.560Z,44.70
2018-04-16T05:24:52.126Z,44.27
2018-04-16T05:27:19.670Z,49.33
2018-04-16T05:29:47.220Z,45.50
2018-04-16T05:32:14.793Z,53.90
2018-04-16T05:34:42.347Z,47.93
2018-04-16T05:37:09.906Z,52.37
2018-04-16T05:39:37.432Z,61.77
2018-04-16T05:42:04.978Z,48.97
2018-04-16T05:44:32.508Z,43.60
2018-04-16T05:47:00.047Z,51.57
2018-04-16T05:49:27.549Z,49.93
2018-04-16T05:51:55.085Z,42.70
2018-04-16T05:54:22.855Z,50.20
2018-04-16T05:56:50.381Z,56.23
2018-04-16T05:59:17.909Z,47.40
2018-04-16T06:01:45.431Z,43.23
2018-04-16T06:04:13.297Z,46.10
2018-04-16T06:06:40.962Z,46.80
2018-04-16T06:09:08.621Z,45.73
2018-04-16T06:11:36.187Z,52.33
2018-04-16T06:14:03.713Z,49.20
2018-04-16T06:16:31.280Z,49.60
2018-04-16T06:18:59.072Z,43.40
2018-04-16T06:21:26.626Z,47.73
2018-04-16T06:23:54.147Z,42.43
2018-04-16T06:26:21.695Z,45.70
2018-04-16T06:28:49.444Z,54.23
2018-04-16T06:31:17.117Z,46.30
2018-04-16T06:33:45.030Z,47.87
2018-04-16T06:36:12.542Z,45.53
2018-04-16T06:38:40.164Z,45.77
2018-04-16T06:41:07.715Z,55.60
2018-04-16T06:43:35.600Z,48.53
2018-04-16T06:46:03.141Z,53.60
2018-04-16T06:48:30.926Z,49.53
2018-04-16T06:50:58.482Z,52.17
2018-04-16T06:53:26.003Z,50.60
2018-04-16T06:55:53.554Z,48.83
2018-04-16T06:58:21.082Z,51.73
2018-04-16T07:00:48.633Z,50.40
2018-04-16T07:03:16.507Z,52.23
2018-04-16T07:05:44.036Z,54.33
2018-04-16T07:08:11.595Z,52.73
2018-04-16T07:10:39.120Z,57.10
2018-04-16T07:13:06.835Z,51.23
2018-04-16T07:15:34.374Z,56.20
2018-04-16T07:18:01.950Z,59.67
2018-04-16T07:20:29.487Z,55.93
2018-04-16T07:22:57.028Z,54.53
2018-04-16T07:25:24.574Z,54.03
2018-04-16T07:27:52.174Z,54.67
2018-04-16T07:30:19.727Z,54.10
2018-04-16T07:32:47.254Z,54.30
2018-04-16T07:35:15.100Z,57.13
2018-04-16T07:37:42.688Z,73.13
2018-04-16T07:40:10.328Z,55.80
2018-04-16T07:42:37.908Z,47.63
2018-04-16T07:45:05.708Z,57.93
2018-04-16T07:47:33.335Z,53.37
2018-04-16T07:50:00.979Z,53.07
2018-04-16T07:52:29.020Z,58.60
2018-04-16T07:54:57.117Z,60.77
2018-04-16T07:57:25.132Z,53.37
2018-04-16T07:59:53.568Z,56.80
2018-04-16T08:02:21.701Z,58.17
2018-04-16T08:04:49.658Z,57.47
2018-04-16T08:07:17.448Z,58.27
2018-04-16T08:09:45.047Z,54.43
2018-04-16T08:12:12.622Z,53.90
2018-04-16T08:14:40.148Z,55.37
2018-04-16T08:17:07.717Z,56.47
2018-04-16T08:19:37.077Z,65.07
2018-04-16T08:22:04.629Z,63.13
2018-04-16T08:24:32.155Z,58.23
2018-04-16T08:26:59.691Z,54.40
2018-04-16T08:29:27.231Z,54.33
2018-04-16T08:31:54.807Z,54.60
2018-04-16T08:34:22.372Z,61.93
2018-04-16T08:36:49.911Z,59.23
2018-04-16T08:39:17.822Z,55.23
2018-04-16T08:41:45.560Z,56.23
2018-04-16T08:44:13.091Z,55.67
2018-04-16T08:46:40.931Z,61.40
2018-04-16T08:49:08.447Z,60.33
2018-04-16T08:51:36.044Z,56.03
2018-04-16T08:54:03.569Z,52.83
2018-04-16T08:56:31.085Z,51.70
2018-04-16T08:58:58.608Z,48.77
2018-04-16T09:01:26.126Z,62.60
2018-04-16T09:03:53.663Z,49.27
2018-04-16T09:06:21.190Z,52.03
2018-04-16T09:08:48.817Z,52.80
2018-04-16T09:11:16.312Z,55.37
2018-04-16T09:13:44.183Z,59.87
2018-04-16T09:16:11.735Z,56.33
2018-04-16T09:18:39.288Z,54.30
2018-04-16T09:21:06.839Z,52.37
2018-04-16T09:23:34.365Z,59.13
2018-04-16T09:26:01.947Z,55.70
2018-04-16T09:28:29.476Z,65.40
2018-04-16T09:30:57.032Z,49.43
2018-04-16T09:33:24.602Z,61.20
2018-04-16T09:35:52.163Z,58.33
2018-04-16T09:38:19.759Z,52.10
2018-04-16T09:40:47.276Z,55.23
2018-04-16T09:43:14.840Z,58.43
2018-04-16T09:45:42.425Z,54.73
2018-04-16T09:48:10.233Z,59.50
2018-04-16T09:50:37.807Z,60.10
2018-04-16T09:53:05.375Z,53.70
2018-04-16T09:55:33.222Z,57.07
2018-04-16T09:58:00.751Z,59.90
2018-04-16T10:00:28.329Z,54.73
2018-04-16T10:02:57.883Z,53.37
2018-04-16T10:05:25.424Z,56.37
2018-04-16T10:07:53.001Z,58.10
2018-04-16T10:10:20.534Z,55.20
2018-04-16T10:12:48.281Z,57.03
2018-04-16T10:15:15.938Z,56.60
2018-04-16T10:17:44.143Z,55.90
2018-04-16T10:20:11.731Z,58.70
2018-04-16T10:22:39.691Z,67.53
2018-04-16T10:25:07.541Z,59.50
2018-04-16T10:27:35.639Z,59.33
2018-04-16T10:30:03.828Z,54.43
2018-04-16T10:32:31.491Z,54.90
2018-04-16T10:34:59.201Z,59.33
2018-04-16T10:37:27.015Z,52.20
2018-04-16T10:39:54.813Z,53.57
2018-04-16T10:42:22.788Z,53.13
2018-04-16T10:44:50.424Z,49.17
2018-04-16T10:47:17.948Z,50.97
2018-04-16T10:49:45.518Z,48.30
2018-04-16T10:52:13.060Z,49.23
2018-04-16T10:54:40.625Z,52.67
2018-04-16T10:57:08.576Z,50.50
2018-04-16T10:59:37.000Z,56.80
2018-04-16T11:02:04.558Z,55.03
2018-04-16T11:04:32.287Z,48.57
2018-04-16T11:06:59.849Z,50.90
2018-04-16T11:09:27.427Z,58.50
2018-04-16T11:11:55.009Z,51.43
2018-04-16T11:14:22.620Z,50.63
2018-04-16T11:16:50.213Z,47.70
2018-04-16T11:19:17.744Z,44.60
2018-04-16T11:21:45.375Z,44.00
2018-04-16T11:24:12.887Z,42.33
2018-04-16T11:26:40.431Z,34.80
2018-04-16T11:29:07.990Z,42.80
2018-04-16T11:31:35.541Z,42.00
2018-04-16T11:34:03.115Z,42.70
2018-04-16T11:36:30.656Z,40.77
2018-04-16T11:38:58.177Z,42.20
2018-04-16T11:41:25.769Z,36.80
2018-04-16T11:43:53.296Z,41.53
2018-04-16T11:46:20.882Z,39.80
2018-04-16T11:48:48.437Z,34.70
2018-04-16T11:51:15.990Z,34.60
2018-04-16T11:53:43.544Z,36.70
2018-04-16T11:56:11.108Z,37.77
2018-04-16T11:58:38.675Z,37.17
2018-04-16T12:01:06.201Z,39.43
2018-04-16T12:03:34.074Z,36.93
2018-04-16T12:06:01.633Z,35.20
2018-04-16T12:08:29.323Z,37.53
2018-04-16T12:10:56.888Z,43.27
2018-04-16T12:13:24.658Z,36.90
2018-04-16T12:15:52.180Z,35.80
2018-04-16T12:18:19.766Z,34.07
2018-04-16T12:20:47.322Z,39.30
2018-04-16T12:23:14.852Z,39.80
2018-04-16T12:25:42.416Z,37.87
2018-04-16T12:28:09.941Z,43.43
2018-04-16T12:30:37.697Z,41.60
2018-04-16T12:33:05.227Z,37.63
2018-04-16T12:35:32.840Z,35.23
2018-04-16T12:38:00.401Z,35.13
2018-04-16T12:40:27.961Z,41.93
2018-04-16T12:42:55.513Z,39.77
2018-04-16T12:45:23.062Z,41.20
2018-04-16T12:47:50.627Z,38.70
2018-04-16T12:50:18.159Z,46.67
2018-04-16T12:52:46.005Z,44.00
2018-04-16T12:55:13.568Z,40.27
2018-04-16T12:57:41.195Z,42.20
2018-04-16T13:00:08.754Z,44.10
2018-04-16T13:02:36.377Z,46.00
2018-04-16T13:05:03.915Z,47.83
2018-04-16T13:07:31.467Z,43.90
2018-04-16T13:09:59.348Z,43.17
2018-04-16T13:12:26.902Z,48.43
2018-04-16T13:14:54.521Z,43.33
2018-04-16T13:17:22.068Z,42.20
2018-04-16T13:19:49.689Z,49.20
2018-04-16T13:22:17.216Z,44.83
2018-04-16T13:24:45.128Z,43.37
2018-04-16T13:27:13.192Z,44.97
2018-04-16T13:29:40.768Z,47.03
2018-04-16T13:32:08.531Z,45.30
2018-04-16T13:34:37.325Z,50.03
2018-04-16T13:37:05.041Z,55.80
2018-04-16T13:39:32.745Z,45.40
2018-04-16T13:42:00.498Z,52.93
2018-04-16T13:44:29.298Z,52.30
2018-04-16T13:46:57.721Z,49.47
2018-04-16T13:49:25.556Z,49.40
2018-04-16T13:51:53.152Z,55.67
2018-04-16T13:54:20.785Z,51.50
2018-04-16T13:56:48.341Z,57.30
2018-04-16T13:59:15.895Z,56.07
2018-04-16T14:01:43.487Z,52.60
2018-04-16T14:04:11.010Z,58.80
2018-04-16T14:06:38.679Z,48.20
2018-04-16T14:09:06.263Z,51.93
2018-04-16T14:11:33.809Z,57.97
2018-04-16T14:14:03.128Z,53.37
2018-04-16T14:16:30.658Z,58.33
2018-04-16T14:18:58.216Z,49.60
2018-04-16T14:21:25.794Z,57.93
2018-04-16T14:23:53.373Z,58.00
2018-04-16T14:26:21.012Z,54.20
2018-04-16T14:28:48.600Z,60.97
2018-04-16T14:31:16.460Z,71.03
2018-04-16T14:33:44.121Z,60.80
2018-04-16T14:36:11.651Z,65.67
2018-04-16T14:38:39.274Z,67.00
2018-04-16T14:41:06.942Z,64.87
2018-04-16T14:43:34.492Z,59.87
2018-04-16T14:46:02.102Z,64.40
2018-04-16T14:48:29.721Z,66.77
2018-04-16T14:50:57.317Z,69.27
2018-04-16T14:53:24.885Z,68.60
2018-04-16T14:55:52.458Z,75.80
2018-04-16T14:58:20.405Z,71.50
2018-04-16T15:00:48.569Z,60.70
2018-04-16T15:03:16.404Z,63.33
2018-04-16T15:05:43.976Z,64.57
2018-04-16T15:08:11.606Z,74.10
2018-04-16T15:10:39.200Z,68.80
2018-04-16T15:13:06.806Z,69.50
2018-04-16T15:15:34.531Z,69.03
2018-04-16T15:18:02.092Z,73.07
2018-04-16T15:20:29.642Z,69.40
2018-04-16T15:22:57.196Z,65.47
2018-04-16T15:25:27.353Z,71.47
2018-04-16T15:27:55.200Z,77.50
2018-04-16T15:30:22.782Z,73.50
2018-04-16T15:32:50.577Z,70.93
2018-04-16T15:35:19.080Z,69.10
2018-04-16T15:37:46.633Z,75.33
2018-04-16T15:40:14.201Z,70.73
2018-04-16T15:42:41.744Z,66.70
2018-04-16T15:45:09.349Z,72.73
2018-04-16T15:47:37.299Z,78.77
2018-04-16T15:50:04.836Z,70.97
2018-04-16T15:52:33.360Z,74.00
2018-04-16T15:55:01.251Z,75.93
2018-04-16T15:57:28.773Z,75.07
2018-04-16T15:59:56.369Z,69.20
2018-04-16T16:02:24.227Z,75.73
2018-04-16T16:04:51.855Z,90.83
2018-04-16T16:07:19.411Z,77.63
2018-04-16T16:09:47.014Z,77.23
2018-04-16T16:12:14.584Z,81.03
2018-04-16T16:14:42.157Z,78.40
2018-04-16T16:17:09.756Z,78.93
2018-04-16T16:19:37.294Z,73.47
2018-04-16T16:22:04.813Z,74.47
2018-04-16T16:24:32.399Z,73.13
2018-04-16T16:26:59.928Z,67.87
2018-04-16T16:29:27.478Z,73.30
2018-04-16T16:31:55.035Z,64.83
2018-04-16T16:34:22.586Z,67.13
2018-04-16T16:36:50.299Z,68.43
2018-04-16T16:39:17.858Z,75.50
2018-04-16T16:41:45.725Z,65.53
2018-04-16T16:44:13.241Z,69.70
2018-04-16T16:46:41.156Z,77.90
2018-04-16T16:49:09.142Z,74.67
2018-04-16T16:51:36.701Z,68.13
2018-04-16T16:54:04.451Z,76.67
2018-04-16T16:56:32.937Z,70.80
2018-04-16T16:59:00.564Z,67.40
2018-04-16T17:01:28.135Z,72.83
2018-04-16T17:03:55.796Z,74.27
2018-04-16T17:06:23.798Z,76.50
2018-04-16T17:08:52.071Z,73.00
2018-04-16T17:11:19.686Z,68.97
2018-04-16T17:13:47.525Z,72.40
2018-04-16T17:16:15.126Z,69.90
2018-04-16T17:18:42.760Z,75.87
2018-04-16T17:21:10.382Z,74.80
2018-04-16T17:23:37.905Z,60.93
2018-04-16T17:26:05.536Z,74.23
2018-04-16T17:28:33.079Z,72.40
2018-04-16T17:31:00.645Z,65.27
2018-04-16T17:33:28.283Z,65.40
2018-04-16T17:35:55.835Z,69.20
2018-04-16T17:38:23.493Z,78.13
2018-04-16T17:40:51.049Z,67.93
2018-04-16T17:43:18.647Z,61.47
2018-04-16T17:45:46.182Z,75.90
2018-04-16T17:48:13.764Z,70.03
2018-04-16T17:50:41.334Z,67.60
2018-04-16T17:53:08.865Z,66.93
2018-04-16T17:55:36.427Z,65.93
2018-04-16T17:58:03.934Z,75.00
2018-04-16T18:00:31.575Z,74.03
2018-04-16T18:02:59.163Z,74.07
2018-04-16T18:05:27.002Z,66.00
2018-04-16T18:07:54.907Z,65.60
2018-04-16T18:10:22.534Z,72.80
2018-04-16T18:12:50.089Z,70.70
2018-04-16T18:15:17.612Z,73.77
2018-04-16T18:17:45.619Z,71.00
2018-04-16T18:20:13.189Z,78.17
2018-04-16T18:22:40.741Z,68.57
2018-04-16T18:25:08.307Z,74.10
2018-04-16T18:27:35.936Z,64.77
2018-04-16T18:30:03.827Z,68.80
2018-04-16T18:32:31.413Z,77.23
2018-04-16T18:34:58.959Z,70.40
2018-04-16T18:37:26.540Z,82.30
2018-04-16T18:39:54.060Z,65.63
2018-04-16T18:42:21.615Z,74.83
2018-04-16T18:44:49.216Z,73.10
2018-04-16T18:47:16.787Z,74.33
2018-04-16T18:49:44.350Z,72.87
2018-04-16T18:52:11.878Z,68.23
2018-04-16T18:54:39.394Z,75.33
2018-04-16T18:57:07.417Z,70.00
2018-04-16T18:59:34.952Z,66.60
2018-04-16T19:02:02.589Z,66.50
2018-04-16T19:04:30.130Z,69.67
2018-04-16T19:06:58.105Z,69.83
2018-04-16T19:09:25.885Z,69.10
2018-04-16T19:11:53.570Z,68.30
2018-04-16T19:14:21.099Z,68.37
2018-04-16T19:16:48.655Z,67.10
2018-04-16T19:19:16.242Z,73.73
2018-04-16T19:21:49.357Z,67.53
2018-04-16T19:24:16.921Z,69.43
2018-04-16T19:26:50.301Z,70.93
2018-04-16T19:29:19.927Z,65.07
2018-04-16T19:31:47.629Z,69.70
2018-04-16T19:34:26.337Z,62.70
2018-04-16T19:36:54.192Z,77.23
2018-04-16T19:39:21.829Z,73.87
2018-04-16T19:41:56.157Z,74.43
2018-04-16T19:44:23.805Z,74.47
2018-04-16T19:46:51.431Z,77.67
2018-04-16T19:49:24.497Z,81.17
2018-04-16T19:51:52.290Z,80.53
2018-04-16T19:54:20.842Z,89.33
2018-04-16T19:59:51.685Z,85.93
2018-04-16T20:02:24.793Z,78.23
2018-04-16T20:04:52.960Z,78.20
2018-04-16T20:07:20.547Z,78.97
2018-04-16T20:09:48.134Z,73.57
2018-04-16T20:12:16.853Z,78.27
2018-04-16T20:14:44.516Z,79.27
2018-04-16T20:17:12.796Z,71.53
2018-04-16T20:19:40.475Z,80.00
2018-04-16T20:22:08.087Z,86.40
2018-04-16T20:24:35.711Z,78.70
2018-04-16T20:27:03.230Z,73.27
2018-04-16T20:29:30.986Z,91.87
2018-04-16T20:31:58.661Z,72.40
2018-04-16T20:34:26.325Z,79.93
2018-04-16T20:36:54.108Z,80.43
2018-04-16T20:39:23.107Z,75.37
2018-04-16T20:41:50.895Z,82.40
2018-04-16T20:44:18.458Z,87.33
2018-04-16T20:46:46.013Z,82.60
2018-04-16T20:49:13.636Z,77.83
2018-04-16T20:51:41.223Z,78.40
2018-04-16T20:54:08.820Z,83.40
2018-04-16T20:56:36.747Z,84.03
2018-04-16T20:59:04.476Z,78.07
2018-04-16T21:01:32.334Z,80.37
2018-04-16T21:04:00.462Z,89.77
2018-04-16T21:06:31.136Z,86.47
2018-04-16T21:08:59.438Z,91.80
2018-04-16T21:11:27.028Z,85.63
2018-04-16T21:13:55.056Z,92.80
2018-04-16T21:16:22.604Z,82.27
2018-04-16T21:18:50.258Z,81.27
2018-04-16T21:21:19.966Z,89.17
2018-04-16T21:23:52.324Z,86.53
2018-04-16T21:26:22.515Z,80.30
2018-04-16T21:28:50.350Z,85.47
2018-04-16T21:31:18.271Z,85.93
2018-04-16T21:33:45.795Z,90.70
2018-04-16T21:36:13.439Z,82.83
2018-04-16T21:38:40.971Z,79.40
2018-04-16T21:41:08.569Z,83.50
2018-04-16T21:43:39.583Z,84.70
2018-04-16T21:46:09.207Z,85.00
2018-04-16T21:48:36.811Z,82.87
2018-04-16T21:51:04.524Z,84.77
2018-04-16T21:53:32.374Z,91.17
2018-04-16T21:56:00.580Z,90.50
2018-04-16T21:58:28.209Z,90.17
2018-04-16T22:00:55.844Z,87.30
2018-04-16T22:03:23.478Z,82.87
2018-04-16T22:05:51.236Z,85.43
2018-04-16T22:08:19.835Z,92.57
2018-04-16T22:10:49.441Z,98.07
2018-04-16T22:13:16.986Z,90.17
2018-04-16T22:15:45.203Z,99.60
2018-04-16T22:18:13.439Z,92.60
2018-04-16T22:20:41.386Z,84.03
2018-04-16T22:23:08.949Z,88.83
2018-04-16T22:25:36.485Z,96.60
2018-04-16T22:28:04.014Z,91.37
2018-04-16T22:30:32.453Z,95.60
2018-04-16T22:33:00.017Z,90.37
2018-04-16T22:35:27.541Z,95.33
2018-04-16T22:37:55.876Z,84.07
2018-04-16T22:40:23.428Z,97.57
2018-04-16T22:42:51.077Z,102.97
2018-04-16T22:45:18.646Z,80.87
2018-04-16T22:47:46.471Z,91.80
2018-04-16T22:50:14.000Z,100.10
2018-04-16T22:52:41.561Z,91.50
2018-04-16T22:55:09.120Z,91.33
2018-04-16T22:57:36.642Z,105.30
2018-04-16T23:00:04.473Z,84.90
2018-04-16T23:02:32.052Z,84.10
2018-04-16T23:04:59.594Z,87.30
2018-04-16T23:07:27.133Z,89.27
2018-04-16T23:09:54.637Z,89.23
2018-04-16T23:12:22.171Z,94.97
2018-04-16T23:14:49.726Z,87.10
2018-04-16T23:17:17.257Z,81.37
2018-04-16T23:19:44.846Z,92.77
2018-04-16T23:22:15.178Z,89.20
2018-04-16T23:24:42.752Z,102.50
2018-04-16T23:27:10.617Z,87.83
2018-04-16T23:29:38.600Z,94.30
2018-04-16T23:32:06.129Z,94.33
2018-04-16T23:34:33.964Z,103.70
2018-04-16T23:37:01.511Z,93.97
2018-04-16T23:39:29.334Z,90.17
2018-04-16T23:41:56.852Z,80.33
2018-04-16T23:44:24.408Z,78.73
2018-04-16T23:46:51.948Z,76.77
2018-04-16T23:49:19.481Z,81.13
2018-04-16T23:51:47.045Z,85.03
2018-04-16T23:54:14.577Z,88.77
2018-04-16T23:56:42.900Z,77.43
2018-04-16T23:59:10.482Z,85.00
